Abbott Park, Illinois
Current Conditions -  °F | °C
As of 3:27 AM on Saturday 25 Oct 2014 (Local Time) from KUGN Reporting Station
Haze Haze  
Wind Chill: 56°   Ceiling: 900
Heat Index: 56°   Visibility: 6mi
Dew Point: 53°   Wind: 5mph
Humidity: 90%   Direction: NA
Pressure: 29.87"   Gusts: NA
Location:  42.3271°N, 87.865°W
Report Text: KUGN 250827Z AUTO VRB04KT 6SM BR OVC009 13/12 A2987 RMK AO2 T01330117
Loading
Personal Weather Stations






























Interactive Weather Map
Tropical Storm Tracking
New forecast layout! Learn more

10-Day Weather Forecast

Advertisements
Track Severe Weather on mobile